sensor_id;sensor_type;location;lat;lon;timestamp;pressure;altitude;pressure_sealevel;temperature;humidity
57791;BME280;43621;51.798;21.588;2023-03-22T00:03:09;99920.43;;;3.00;63.61
57791;BME280;43621;51.798;21.588;2023-03-22T00:07:10;99912.55;;;2.91;63.58
57791;BME280;43621;51.798;21.588;2023-03-22T00:11:12;99911.95;;;2.89;63.95
57791;BME280;43621;51.798;21.588;2023-03-22T00:15:14;99905.79;;;2.92;64.08
57791;BME280;43621;51.798;21.588;2023-03-22T00:19:16;99902.73;;;2.94;64.20
57791;BME280;43621;51.798;21.588;2023-03-22T00:23:18;99900.70;;;2.93;64.05
57791;BME280;43621;51.798;21.588;2023-03-22T00:27:21;99906.29;;;2.95;64.12
57791;BME280;43621;51.798;21.588;2023-03-22T00:31:22;99911.17;;;3.02;64.37
57791;BME280;43621;51.798;21.588;2023-03-22T00:35:24;99910.06;;;3.09;64.37
57791;BME280;43621;51.798;21.588;2023-03-22T00:39:26;99909.29;;;3.16;64.27
57791;BME280;43621;51.798;21.588;2023-03-22T00:43:28;99908.40;;;3.24;64.24
57791;BME280;43621;51.798;21.588;2023-03-22T00:47:29;99912.79;;;3.31;64.26
57791;BME280;43621;51.798;21.588;2023-03-22T00:51:31;99911.66;;;3.38;64.28
57791;BME280;43621;51.798;21.588;2023-03-22T00:55:33;99907.34;;;3.38;64.07
57791;BME280;43621;51.798;21.588;2023-03-22T00:59:35;99906.15;;;3.41;64.23
57791;BME280;43621;51.798;21.588;2023-03-22T01:03:39;99900.25;;;3.44;64.33
57791;BME280;43621;51.798;21.588;2023-03-22T01:07:42;99903.22;;;3.43;64.39
57791;BME280;43621;51.798;21.588;2023-03-22T01:11:45;99898.41;;;3.43;64.50
57791;BME280;43621;51.798;21.588;2023-03-22T01:15:49;99892.44;;;3.45;64.69
57791;BME280;43621;51.798;21.588;2023-03-22T01:19:52;99888.77;;;3.45;64.71
57791;BME280;43621;51.798;21.588;2023-03-22T01:23:53;99890.76;;;3.44;64.69
57791;BME280;43621;51.798;21.588;2023-03-22T01:27:55;99880.63;;;3.38;64.68
57791;BME280;43621;51.798;21.588;2023-03-22T01:31:57;99879.98;;;3.40;64.94
57791;BME280;43621;51.798;21.588;2023-03-22T01:35:59;99879.48;;;3.40;64.93
57791;BME280;43621;51.798;21.588;2023-03-22T01:40:01;99881.36;;;3.40;65.15
57791;BME280;43621;51.798;21.588;2023-03-22T01:48:32;99879.82;;;3.42;65.36
57791;BME280;43621;51.798;21.588;2023-03-22T01:52:36;99878.58;;;3.40;65.39
57791;BME280;43621;51.798;21.588;2023-03-22T01:56:40;99876.61;;;3.36;65.27
57791;BME280;43621;51.798;21.588;2023-03-22T02:00:43;99871.77;;;3.25;65.07
57791;BME280;43621;51.798;21.588;2023-03-22T02:04:46;99873.02;;;3.16;65.14
57791;BME280;43621;51.798;21.588;2023-03-22T02:08:51;99866.37;;;3.13;65.20
57791;BME280;43621;51.798;21.588;2023-03-22T02:13:13;99861.02;;;3.15;65.32
57791;BME280;43621;51.798;21.588;2023-03-22T02:18:06;99859.60;;;3.21;65.59
57791;BME280;43621;51.798;21.588;2023-03-22T02:22:28;99853.23;;;3.24;65.46
57791;BME280;43621;51.798;21.588;2023-03-22T02:35:56;99839.95;;;2.66;65.47
57791;BME280;43621;51.798;21.588;2023-03-22T02:40:13;99841.31;;;2.46;65.50
57791;BME280;43621;51.798;21.588;2023-03-22T02:44:41;99843.04;;;2.35;65.65
57791;BME280;43621;51.798;21.588;2023-03-22T02:49:02;99842.59;;;2.22;65.70
57791;BME280;43621;51.798;21.588;2023-03-22T02:53:51;99846.45;;;2.20;65.98
57791;BME280;43621;51.798;21.588;2023-03-22T02:57:59;99847.23;;;2.24;65.92
57791;BME280;43621;51.798;21.588;2023-03-22T03:02:04;99849.40;;;2.29;65.83
57791;BME280;43621;51.798;21.588;2023-03-22T03:06:12;99851.36;;;2.34;65.89
57791;BME280;43621;51.798;21.588;2023-03-22T03:10:16;99847.96;;;2.41;66.04
57791;BME280;43621;51.798;21.588;2023-03-22T03:14:31;99842.80;;;2.56;66.25
57791;BME280;43621;51.798;21.588;2023-03-22T03:19:19;99841.87;;;2.65;66.13
57791;BME280;43621;51.798;21.588;2023-03-22T03:27:57;99843.02;;;2.55;66.11
57791;BME280;43621;51.798;21.588;2023-03-22T03:36:15;99841.12;;;2.29;66.20
57791;BME280;43621;51.798;21.588;2023-03-22T03:40:46;99839.96;;;2.19;66.32
57791;BME280;43621;51.798;21.588;2023-03-22T03:44:49;99839.71;;;2.09;66.39
57791;BME280;43621;51.798;21.588;2023-03-22T03:48:51;99842.73;;;2.08;66.51
57791;BME280;43621;51.798;21.588;2023-03-22T03:52:56;99839.62;;;2.08;66.62
57791;BME280;43621;51.798;21.588;2023-03-22T03:56:58;99830.98;;;2.09;66.72
57791;BME280;43621;51.798;21.588;2023-03-22T04:01:00;99829.99;;;2.10;66.78
57791;BME280;43621;51.798;21.588;2023-03-22T04:05:01;99827.46;;;2.10;66.76
57791;BME280;43621;51.798;21.588;2023-03-22T04:09:04;99824.77;;;2.09;66.90
57791;BME280;43621;51.798;21.588;2023-03-22T04:13:06;99826.38;;;2.05;66.88
57791;BME280;43621;51.798;21.588;2023-03-22T04:17:08;99825.49;;;2.02;66.95
57791;BME280;43621;51.798;21.588;2023-03-22T04:21:10;99825.73;;;2.01;66.98
57791;BME280;43621;51.798;21.588;2023-03-22T04:25:13;99821.79;;;2.01;67.17
57791;BME280;43621;51.798;21.588;2023-03-22T04:29:18;99823.94;;;1.91;67.05
57791;BME280;43621;51.798;21.588;2023-03-22T04:33:20;99820.55;;;1.81;67.00
57791;BME280;43621;51.798;21.588;2023-03-22T04:37:23;99818.62;;;1.82;67.21
57791;BME280;43621;51.798;21.588;2023-03-22T04:41:27;99823.34;;;1.89;67.30
57791;BME280;43621;51.798;21.588;2023-03-22T04:45:30;99824.11;;;1.99;67.24
57791;BME280;43621;51.798;21.588;2023-03-22T04:49:32;99829.95;;;2.08;67.17
57791;BME280;43621;51.798;21.588;2023-03-22T04:53:35;99831.83;;;2.11;67.10
57791;BME280;43621;51.798;21.588;2023-03-22T04:57:39;99832.27;;;2.13;67.08
57791;BME280;43621;51.798;21.588;2023-03-22T05:01:41;99829.86;;;2.24;67.29
57791;BME280;43621;51.798;21.588;2023-03-22T05:05:51;99832.96;;;2.36;67.19
57791;BME280;43621;51.798;21.588;2023-03-22T05:09:53;99837.02;;;2.51;67.14
57791;BME280;43621;51.798;21.588;2023-03-22T05:13:56;99840.59;;;2.75;67.16
57791;BME280;43621;51.798;21.588;2023-03-22T05:17:58;99841.28;;;3.08;67.25
57791;BME280;43621;51.798;21.588;2023-03-22T05:22:00;99841.48;;;3.46;67.03
57791;BME280;43621;51.798;21.588;2023-03-22T05:26:02;99842.62;;;3.78;66.67
57791;BME280;43621;51.798;21.588;2023-03-22T05:30:05;99844.89;;;4.25;66.66
57791;BME280;43621;51.798;21.588;2023-03-22T05:34:07;99843.29;;;4.81;66.48
57791;BME280;43621;51.798;21.588;2023-03-22T05:38:10;99845.67;;;5.40;66.25
57791;BME280;43621;51.798;21.588;2023-03-22T05:42:12;99852.96;;;5.94;66.09
57791;BME280;43621;51.798;21.588;2023-03-22T05:46:13;99852.24;;;6.16;65.36
57791;BME280;43621;51.798;21.588;2023-03-22T05:50:18;99858.77;;;6.19;64.38
57791;BME280;43621;51.798;21.588;2023-03-22T05:54:21;99858.77;;;6.00;63.46
57791;BME280;43621;51.798;21.588;2023-03-22T05:58:23;99856.91;;;5.59;62.90
57791;BME280;43621;51.798;21.588;2023-03-22T06:02:25;99853.67;;;5.15;63.22
57791;BME280;43621;51.798;21.588;2023-03-22T06:06:27;99854.08;;;4.87;63.74
57791;BME280;43621;51.798;21.588;2023-03-22T06:10:29;99854.33;;;4.76;64.18
57791;BME280;43621;51.798;21.588;2023-03-22T06:14:31;99855.01;;;4.84;64.95
57791;BME280;43621;51.798;21.588;2023-03-22T06:18:33;99856.78;;;4.98;65.51
57791;BME280;43621;51.798;21.588;2023-03-22T06:22:36;99855.83;;;5.19;65.57
57791;BME280;43621;51.798;21.588;2023-03-22T06:26:52;99854.33;;;5.45;65.53
57791;BME280;43621;51.798;21.588;2023-03-22T06:31:05;99855.37;;;5.85;65.39
57791;BME280;43621;51.798;21.588;2023-03-22T06:35:07;99854.68;;;6.49;65.25
57791;BME280;43621;51.798;21.588;2023-03-22T06:39:09;99854.44;;;7.41;65.13
57791;BME280;43621;51.798;21.588;2023-03-22T06:43:11;99854.71;;;8.65;64.83
57791;BME280;43621;51.798;21.588;2023-03-22T06:47:13;99846.63;;;10.76;64.02
57791;BME280;43621;51.798;21.588;2023-03-22T06:51:14;99838.97;;;14.21;63.06
57791;BME280;43621;51.798;21.588;2023-03-22T06:55:16;99832.02;;;18.07;58.72
57791;BME280;43621;51.798;21.588;2023-03-22T06:59:18;99833.86;;;20.91;55.14
57791;BME280;43621;51.798;21.588;2023-03-22T07:03:20;99836.30;;;22.97;50.18
57791;BME280;43621;51.798;21.588;2023-03-22T07:07:22;99838.09;;;24.83;44.25
57791;BME280;43621;51.798;21.588;2023-03-22T07:11:24;99832.92;;;25.94;40.14
57791;BME280;43621;51.798;21.588;2023-03-22T07:15:28;99833.89;;;26.85;38.17
57791;BME280;43621;51.798;21.588;2023-03-22T07:19:30;99838.94;;;28.29;36.15
57791;BME280;43621;51.798;21.588;2023-03-22T07:23:33;99837.88;;;27.49;33.58
57791;BME280;43621;51.798;21.588;2023-03-22T07:27:35;99839.44;;;25.22;32.67
57791;BME280;43621;51.798;21.588;2023-03-22T07:31:37;99835.56;;;24.08;32.90
57791;BME280;43621;51.798;21.588;2023-03-22T07:35:40;99837.21;;;22.72;32.86
57791;BME280;43621;51.798;21.588;2023-03-22T07:39:41;99841.25;;;20.72;33.76
57791;BME280;43621;51.798;21.588;2023-03-22T07:43:44;99842.07;;;18.77;35.35
57791;BME280;43621;51.798;21.588;2023-03-22T07:47:47;99841.79;;;17.49;36.93
57791;BME280;43621;51.798;21.588;2023-03-22T07:51:49;99837.83;;;16.91;38.33
57791;BME280;43621;51.798;21.588;2023-03-22T07:55:51;99833.21;;;16.43;39.31
57791;BME280;43621;51.798;21.588;2023-03-22T07:59:53;99835.14;;;15.65;40.42
57791;BME280;43621;51.798;21.588;2023-03-22T08:03:54;99833.21;;;16.36;40.78
57791;BME280;43621;51.798;21.588;2023-03-22T08:07:56;99832.76;;;17.97;40.70
57791;BME280;43621;51.798;21.588;2023-03-22T08:12:01;99827.66;;;22.74;38.17
57791;BME280;43621;51.798;21.588;2023-03-22T08:16:04;99816.67;;;26.01;33.61
57791;BME280;43621;51.798;21.588;2023-03-22T08:20:06;99817.02;;;26.86;32.06
57791;BME280;43621;51.798;21.588;2023-03-22T08:24:09;99819.27;;;28.69;28.89
57791;BME280;43621;51.798;21.588;2023-03-22T08:28:11;99816.56;;;30.95;27.62
57791;BME280;43621;51.798;21.588;2023-03-22T08:32:15;99810.11;;;31.94;24.36
57791;BME280;43621;51.798;21.588;2023-03-22T08:36:19;99812.86;;;32.90;24.43
57791;BME280;43621;51.798;21.588;2023-03-22T08:40:23;99808.84;;;33.22;23.12
57791;BME280;43621;51.798;21.588;2023-03-22T08:44:25;99805.71;;;33.32;22.47
57791;BME280;43621;51.798;21.588;2023-03-22T08:48:27;99803.80;;;34.58;21.39
57791;BME280;43621;51.798;21.588;2023-03-22T08:52:32;99803.91;;;36.26;20.34
57791;BME280;43621;51.798;21.588;2023-03-22T08:56:34;99804.29;;;36.74;18.42
57791;BME280;43621;51.798;21.588;2023-03-22T09:00:39;99796.78;;;35.86;18.54
57791;BME280;43621;51.798;21.588;2023-03-22T09:04:41;99794.86;;;36.43;18.50
57791;BME280;43621;51.798;21.588;2023-03-22T09:08:43;99790.06;;;38.12;17.18
57791;BME280;43621;51.798;21.588;2023-03-22T09:12:45;99784.00;;;40.26;15.86
57791;BME280;43621;51.798;21.588;2023-03-22T09:16:47;99780.06;;;41.99;15.00
57791;BME280;43621;51.798;21.588;2023-03-22T09:20:49;99774.55;;;42.22;13.31
57791;BME280;43621;51.798;21.588;2023-03-22T09:24:51;99771.15;;;41.93;13.00
57791;BME280;43621;51.798;21.588;2023-03-22T09:28:53;99771.27;;;40.85;13.68
57791;BME280;43621;51.798;21.588;2023-03-22T09:32:55;99768.16;;;39.99;14.06
57791;BME280;43621;51.798;21.588;2023-03-22T09:36:57;99765.52;;;39.68;14.63
57791;BME280;43621;51.798;21.588;2023-03-22T09:45:49;99758.59;;;40.80;13.97
57791;BME280;43621;51.798;21.588;2023-03-22T09:49:55;99752.84;;;40.77;13.83
57791;BME280;43621;51.798;21.588;2023-03-22T09:54:02;99751.91;;;39.95;13.66
57791;BME280;43621;51.798;21.588;2023-03-22T09:58:22;99751.33;;;40.52;13.68
57791;BME280;43621;51.798;21.588;2023-03-22T10:02:46;99751.19;;;40.90;13.32
57791;BME280;43621;51.798;21.588;2023-03-22T10:11:28;99732.16;;;33.11;15.46
57791;BME280;43621;51.798;21.588;2023-03-22T10:15:39;99731.52;;;29.24;17.88
57791;BME280;43621;51.798;21.588;2023-03-22T10:19:50;99722.64;;;26.16;20.46
57791;BME280;43621;51.798;21.588;2023-03-22T10:23:56;99718.92;;;23.76;22.69
57791;BME280;43621;51.798;21.588;2023-03-22T10:27:59;99714.55;;;22.04;25.24
57791;BME280;43621;51.798;21.588;2023-03-22T10:32:21;99712.54;;;20.71;27.13
57791;BME280;43621;51.798;21.588;2023-03-22T10:36:30;99715.81;;;19.51;28.52
57791;BME280;43621;51.798;21.588;2023-03-22T10:40:35;99712.85;;;18.23;30.44
57791;BME280;43621;51.798;21.588;2023-03-22T10:44:51;99712.17;;;17.34;31.94
57791;BME280;43621;51.798;21.588;2023-03-22T10:48:57;99711.35;;;17.07;33.21
57791;BME280;43621;51.798;21.588;2023-03-22T10:53:11;99705.41;;;17.54;33.91
57791;BME280;43621;51.798;21.588;2023-03-22T10:57:15;99700.16;;;19.28;32.56
57791;BME280;43621;51.798;21.588;2023-03-22T11:01:28;99688.88;;;21.40;30.81
57791;BME280;43621;51.798;21.588;2023-03-22T11:05:31;99683.47;;;21.55;29.63
57791;BME280;43621;51.798;21.588;2023-03-22T11:09:33;99676.14;;;20.83;29.90
57791;BME280;43621;51.798;21.588;2023-03-22T11:13:35;99668.23;;;20.38;30.31
57791;BME280;43621;51.798;21.588;2023-03-22T11:17:37;99663.87;;;20.25;30.83
57791;BME280;43621;51.798;21.588;2023-03-22T11:21:40;99654.07;;;19.79;31.19
57791;BME280;43621;51.798;21.588;2023-03-22T11:25:48;99647.63;;;19.28;31.62
57791;BME280;43621;51.798;21.588;2023-03-22T11:29:57;99644.27;;;19.05;32.31
57791;BME280;43621;51.798;21.588;2023-03-22T11:34:00;99641.91;;;18.72;32.51
57791;BME280;43621;51.798;21.588;2023-03-22T11:38:03;99641.86;;;18.65;32.73
57791;BME280;43621;51.798;21.588;2023-03-22T11:42:05;99642.61;;;18.85;32.87
57791;BME280;43621;51.798;21.588;2023-03-22T11:46:07;99635.23;;;19.12;32.57
57791;BME280;43621;51.798;21.588;2023-03-22T11:50:26;99627.32;;;19.16;32.46
57791;BME280;43621;51.798;21.588;2023-03-22T11:54:34;99624.42;;;18.79;32.82
57791;BME280;43621;51.798;21.588;2023-03-22T12:02:56;99618.45;;;17.40;34.29
57791;BME280;43621;51.798;21.588;2023-03-22T12:07:04;99619.84;;;16.95;35.40
57791;BME280;43621;51.798;21.588;2023-03-22T12:11:14;99625.27;;;16.53;35.52
57791;BME280;43621;51.798;21.588;2023-03-22T12:15:25;99619.96;;;16.09;36.86
57791;BME280;43621;51.798;21.588;2023-03-22T12:24:27;99612.87;;;15.50;38.53
57791;BME280;43621;51.798;21.588;2023-03-22T12:28:41;99614.42;;;15.33;39.49
57791;BME280;43621;51.798;21.588;2023-03-22T12:33:29;99612.31;;;15.10;40.08
57791;BME280;43621;51.798;21.588;2023-03-22T12:37:27;99608.45;;;14.83;41.06
57791;BME280;43621;51.798;21.588;2023-03-22T12:41:45;99606.82;;;14.64;41.41
57791;BME280;43621;51.798;21.588;2023-03-22T12:45:52;99605.58;;;14.52;42.18
57791;BME280;43621;51.798;21.588;2023-03-22T12:50:02;99598.55;;;14.40;42.30
57791;BME280;43621;51.798;21.588;2023-03-22T12:54:10;99597.72;;;14.35;42.54
57791;BME280;43621;51.798;21.588;2023-03-22T12:58:19;99594.85;;;14.36;42.47
57791;BME280;43621;51.798;21.588;2023-03-22T13:02:30;99592.19;;;14.34;43.11
57791;BME280;43621;51.798;21.588;2023-03-22T13:07:29;99593.80;;;14.44;42.97
57791;BME280;43621;51.798;21.588;2023-03-22T13:11:21;99581.82;;;14.72;43.25
57791;BME280;43621;51.798;21.588;2023-03-22T13:15:30;99576.77;;;14.99;43.14
57791;BME280;43621;51.798;21.588;2023-03-22T13:19:34;99575.93;;;15.24;42.87
57791;BME280;43621;51.798;21.588;2023-03-22T13:24:18;99576.63;;;15.50;42.78
57791;BME280;43621;51.798;21.588;2023-03-22T13:28:25;99568.95;;;15.74;42.60
57791;BME280;43621;51.798;21.588;2023-03-22T13:32:29;99556.23;;;15.98;42.53
57791;BME280;43621;51.798;21.588;2023-03-22T13:36:33;99551.91;;;16.06;42.31
57791;BME280;43621;51.798;21.588;2023-03-22T13:45:33;99543.05;;;16.13;42.11
57791;BME280;43621;51.798;21.588;2023-03-22T13:49:51;99548.23;;;16.22;41.79
57791;BME280;43621;51.798;21.588;2023-03-22T14:02:39;99540.56;;;15.76;41.58
57791;BME280;43621;51.798;21.588;2023-03-22T14:06:49;99542.75;;;15.25;42.12
57791;BME280;43621;51.798;21.588;2023-03-22T14:11:15;99539.99;;;14.90;42.74
57791;BME280;43621;51.798;21.588;2023-03-22T14:15:24;99539.20;;;14.71;43.03
57791;BME280;43621;51.798;21.588;2023-03-22T14:19:29;99535.74;;;14.63;43.24
57791;BME280;43621;51.798;21.588;2023-03-22T14:23:35;99530.30;;;14.57;43.46
57791;BME280;43621;51.798;21.588;2023-03-22T14:27:39;99522.61;;;14.57;43.41
57791;BME280;43621;51.798;21.588;2023-03-22T14:31:41;99519.29;;;14.46;43.45
57791;BME280;43621;51.798;21.588;2023-03-22T14:35:53;99515.38;;;14.42;43.93
57791;BME280;43621;51.798;21.588;2023-03-22T14:39:56;99508.66;;;14.42;43.95
57791;BME280;43621;51.798;21.588;2023-03-22T14:44:01;99505.14;;;14.42;43.95
57791;BME280;43621;51.798;21.588;2023-03-22T14:48:22;99500.61;;;14.31;44.28
57791;BME280;43621;51.798;21.588;2023-03-22T14:52:33;99504.05;;;14.21;44.42
57791;BME280;43621;51.798;21.588;2023-03-22T14:56:40;99502.05;;;14.11;44.50
57791;BME280;43621;51.798;21.588;2023-03-22T15:00:45;99502.58;;;14.00;45.07
57791;BME280;43621;51.798;21.588;2023-03-22T15:04:51;99496.41;;;13.93;45.09
57791;BME280;43621;51.798;21.588;2023-03-22T15:08:53;99498.16;;;13.85;45.36
57791;BME280;43621;51.798;21.588;2023-03-22T15:12:56;99502.48;;;13.76;45.72
57791;BME280;43621;51.798;21.588;2023-03-22T15:17:00;99502.05;;;13.69;46.01
57791;BME280;43621;51.798;21.588;2023-03-22T15:21:03;99497.84;;;13.61;45.94
57791;BME280;43621;51.798;21.588;2023-03-22T15:25:10;99494.02;;;13.56;46.18
57791;BME280;43621;51.798;21.588;2023-03-22T15:29:14;99489.34;;;13.53;46.50
57791;BME280;43621;51.798;21.588;2023-03-22T15:33:22;99493.72;;;13.51;46.88
57791;BME280;43621;51.798;21.588;2023-03-22T15:37:29;99490.45;;;13.46;47.01
57791;BME280;43621;51.798;21.588;2023-03-22T15:41:39;99489.39;;;13.38;47.18
57791;BME280;43621;51.798;21.588;2023-03-22T15:46:29;99484.44;;;13.27;47.49
57791;BME280;43621;51.798;21.588;2023-03-22T15:50:06;99476.23;;;13.17;47.39
57791;BME280;43621;51.798;21.588;2023-03-22T15:54:15;99470.59;;;13.09;47.52
57791;BME280;43621;51.798;21.588;2023-03-22T15:58:28;99473.89;;;13.02;47.67
57791;BME280;43621;51.798;21.588;2023-03-22T16:02:33;99472.17;;;12.93;48.18
57791;BME280;43621;51.798;21.588;2023-03-22T16:06:36;99470.39;;;12.81;48.48
57791;BME280;43621;51.798;21.588;2023-03-22T16:10:39;99466.90;;;12.68;48.99
57791;BME280;43621;51.798;21.588;2023-03-22T16:14:44;99469.18;;;12.53;49.38
57791;BME280;43621;51.798;21.588;2023-03-22T16:18:46;99475.05;;;12.41;49.54
57791;BME280;43621;51.798;21.588;2023-03-22T16:22:49;99473.54;;;12.28;49.85
57791;BME280;43621;51.798;21.588;2023-03-22T16:26:51;99472.81;;;12.15;50.16
57791;BME280;43621;51.798;21.588;2023-03-22T16:30:53;99469.78;;;12.02;50.88
57791;BME280;43621;51.798;21.588;2023-03-22T16:34:55;99471.59;;;11.90;50.93
57791;BME280;43621;51.798;21.588;2023-03-22T16:38:57;99470.11;;;11.79;51.05
57791;BME280;43621;51.798;21.588;2023-03-22T16:42:59;99460.95;;;11.71;50.98
57791;BME280;43621;51.798;21.588;2023-03-22T16:47:01;99453.92;;;11.61;51.48
57791;BME280;43621;51.798;21.588;2023-03-22T16:51:03;99453.52;;;11.50;51.43
57791;BME280;43621;51.798;21.588;2023-03-22T16:55:17;99458.14;;;11.41;51.71
57791;BME280;43621;51.798;21.588;2023-03-22T16:59:20;99465.88;;;11.32;51.81
57791;BME280;43621;51.798;21.588;2023-03-22T17:03:22;99467.52;;;11.25;52.11
57791;BME280;43621;51.798;21.588;2023-03-22T17:07:28;99462.67;;;11.19;52.32
57791;BME280;43621;51.798;21.588;2023-03-22T17:11:30;99460.88;;;11.14;52.32
57791;BME280;43621;51.798;21.588;2023-03-22T17:15:37;99458.27;;;11.09;52.50
57791;BME280;43621;51.798;21.588;2023-03-22T17:19:42;99455.08;;;11.04;52.55
57791;BME280;43621;51.798;21.588;2023-03-22T17:23:45;99455.02;;;11.01;52.56
57791;BME280;43621;51.798;21.588;2023-03-22T17:27:48;99456.80;;;10.99;53.28
57791;BME280;43621;51.798;21.588;2023-03-22T17:31:50;99458.60;;;10.97;53.09
57791;BME280;43621;51.798;21.588;2023-03-22T17:35:52;99460.77;;;10.95;53.26
57791;BME280;43621;51.798;21.588;2023-03-22T17:39:54;99464.38;;;10.92;53.56
57791;BME280;43621;51.798;21.588;2023-03-22T17:43:56;99466.54;;;10.90;53.95
57791;BME280;43621;51.798;21.588;2023-03-22T17:47:58;99469.27;;;10.87;53.82
57791;BME280;43621;51.798;21.588;2023-03-22T17:52:01;99471.55;;;10.85;54.05
57791;BME280;43621;51.798;21.588;2023-03-22T17:56:03;99473.19;;;10.84;54.23
57791;BME280;43621;51.798;21.588;2023-03-22T18:00:06;99471.09;;;10.83;54.33
57791;BME280;43621;51.798;21.588;2023-03-22T18:04:08;99474.59;;;10.82;54.49
57791;BME280;43621;51.798;21.588;2023-03-22T18:08:10;99475.50;;;10.82;54.63
57791;BME280;43621;51.798;21.588;2023-03-22T18:12:15;99476.21;;;10.80;54.70
57791;BME280;43621;51.798;21.588;2023-03-22T18:16:17;99474.50;;;10.80;54.95
57791;BME280;43621;51.798;21.588;2023-03-22T18:20:21;99474.54;;;10.80;55.03
57791;BME280;43621;51.798;21.588;2023-03-22T18:24:24;99471.83;;;10.79;55.14
57791;BME280;43621;51.798;21.588;2023-03-22T18:28:29;99473.04;;;10.81;55.19
57791;BME280;43621;51.798;21.588;2023-03-22T18:32:31;99471.00;;;10.85;55.27
57791;BME280;43621;51.798;21.588;2023-03-22T18:36:33;99471.85;;;10.89;55.31
57791;BME280;43621;51.798;21.588;2023-03-22T18:40:35;99469.20;;;10.91;55.17
57791;BME280;43621;51.798;21.588;2023-03-22T18:44:37;99468.52;;;10.91;55.23
57791;BME280;43621;51.798;21.588;2023-03-22T18:48:40;99466.40;;;10.89;55.32
57791;BME280;43621;51.798;21.588;2023-03-22T18:52:42;99467.67;;;10.87;55.20
57791;BME280;43621;51.798;21.588;2023-03-22T18:56:44;99466.84;;;10.83;55.42
57791;BME280;43621;51.798;21.588;2023-03-22T19:00:46;99467.10;;;10.79;55.40
57791;BME280;43621;51.798;21.588;2023-03-22T19:04:48;99460.98;;;10.74;55.32
57791;BME280;43621;51.798;21.588;2023-03-22T19:08:50;99452.27;;;10.69;55.30
57791;BME280;43621;51.798;21.588;2023-03-22T19:12:51;99451.55;;;10.64;55.45
57791;BME280;43621;51.798;21.588;2023-03-22T19:16:53;99450.29;;;10.57;55.59
57791;BME280;43621;51.798;21.588;2023-03-22T19:20:55;99447.60;;;10.51;55.95
57791;BME280;43621;51.798;21.588;2023-03-22T19:24:57;99448.54;;;10.50;56.01
57791;BME280;43621;51.798;21.588;2023-03-22T19:28:59;99445.25;;;10.51;56.07
57791;BME280;43621;51.798;21.588;2023-03-22T19:33:01;99446.73;;;10.56;56.08
57791;BME280;43621;51.798;21.588;2023-03-22T19:37:03;99444.17;;;10.62;56.31
57791;BME280;43621;51.798;21.588;2023-03-22T19:41:04;99439.95;;;10.66;56.37
57791;BME280;43621;51.798;21.588;2023-03-22T19:45:10;99439.95;;;10.66;56.41
57791;BME280;43621;51.798;21.588;2023-03-22T19:49:12;99435.91;;;10.65;56.30
57791;BME280;43621;51.798;21.588;2023-03-22T19:53:14;99433.74;;;10.64;56.38
57791;BME280;43621;51.798;21.588;2023-03-22T19:57:16;99433.90;;;10.62;56.36
57791;BME280;43621;51.798;21.588;2023-03-22T20:01:20;99430.64;;;10.60;56.69
57791;BME280;43621;51.798;21.588;2023-03-22T20:05:23;99430.02;;;10.57;56.90
57791;BME280;43621;51.798;21.588;2023-03-22T20:09:25;99425.15;;;10.55;56.97
57791;BME280;43621;51.798;21.588;2023-03-22T20:13:26;99423.36;;;10.52;57.03
57791;BME280;43621;51.798;21.588;2023-03-22T20:17:28;99417.56;;;10.49;57.15
57791;BME280;43621;51.798;21.588;2023-03-22T20:21:31;99416.23;;;10.47;56.85
57791;BME280;43621;51.798;21.588;2023-03-22T20:25:33;99415.83;;;10.46;57.05
57791;BME280;43621;51.798;21.588;2023-03-22T20:29:35;99412.45;;;10.45;56.94
57791;BME280;43621;51.798;21.588;2023-03-22T20:33:37;99413.58;;;10.45;57.00
57791;BME280;43621;51.798;21.588;2023-03-22T20:37:39;99410.66;;;10.47;56.94
57791;BME280;43621;51.798;21.588;2023-03-22T20:41:42;99413.02;;;10.47;56.92
57791;BME280;43621;51.798;21.588;2023-03-22T20:45:44;99413.37;;;10.46;56.85
57791;BME280;43621;51.798;21.588;2023-03-22T20:49:47;99416.34;;;10.44;56.99
57791;BME280;43621;51.798;21.588;2023-03-22T20:53:48;99414.52;;;10.41;57.09
57791;BME280;43621;51.798;21.588;2023-03-22T20:57:51;99410.41;;;10.38;57.08
57791;BME280;43621;51.798;21.588;2023-03-22T21:01:53;99411.16;;;10.38;57.02
57791;BME280;43621;51.798;21.588;2023-03-22T21:05:56;99409.65;;;10.37;57.01
57791;BME280;43621;51.798;21.588;2023-03-22T21:09:58;99403.57;;;10.33;57.10
57791;BME280;43621;51.798;21.588;2023-03-22T21:14:00;99405.64;;;10.30;57.00
57791;BME280;43621;51.798;21.588;2023-03-22T21:18:02;99403.90;;;10.25;56.93
57791;BME280;43621;51.798;21.588;2023-03-22T21:22:04;99403.02;;;10.20;57.06
57791;BME280;43621;51.798;21.588;2023-03-22T21:26:06;99396.91;;;10.13;57.04
57791;BME280;43621;51.798;21.588;2023-03-22T21:30:10;99391.84;;;10.06;57.15
57791;BME280;43621;51.798;21.588;2023-03-22T21:34:12;99395.35;;;10.02;57.28
57791;BME280;43621;51.798;21.588;2023-03-22T21:38:14;99398.23;;;10.00;57.46
57791;BME280;43621;51.798;21.588;2023-03-22T21:42:25;99399.45;;;9.95;57.40
57791;BME280;43621;51.798;21.588;2023-03-22T21:46:27;99398.00;;;9.94;57.66
57791;BME280;43621;51.798;21.588;2023-03-22T21:50:41;99400.22;;;9.95;57.66
57791;BME280;43621;51.798;21.588;2023-03-22T21:54:43;99397.52;;;9.96;57.72
57791;BME280;43621;51.798;21.588;2023-03-22T21:58:46;99396.48;;;9.93;57.67
57791;BME280;43621;51.798;21.588;2023-03-22T22:02:48;99397.17;;;9.89;57.62
57791;BME280;43621;51.798;21.588;2023-03-22T22:06:50;99397.73;;;9.83;57.53
57791;BME280;43621;51.798;21.588;2023-03-22T22:14:56;99389.55;;;9.69;57.68
57791;BME280;43621;51.798;21.588;2023-03-22T22:18:58;99388.65;;;9.65;58.04
57791;BME280;43621;51.798;21.588;2023-03-22T22:23:00;99387.80;;;9.65;58.12
57791;BME280;43621;51.798;21.588;2023-03-22T22:27:02;99385.45;;;9.70;58.24